Terminal Aerodrome Forecast
Issued by NWS

Home | Current Version | Previous Version | Text Only | Print | Product List | Glossary On
Versions: 1 2 3 4 5 6 7 8 9 10 11 12 13 14 15 16 17 18 19
367
FTUS41 KGYX 011720
TAFRKD
TAF
KRKD 011720Z 0118/0218 18009KT P6SM SCT060 SCT100 OVC150
     FM012100 18005KT P6SM -SHRA BKN060 OVC090
     FM020200 VRB03KT P6SM SCT025 BKN045 OVC060
     FM020900 09004KT P6SM SCT015 OVC025
     FM021200 09006KT 4SM -SHRA BR BKN008 OVC012
      AMD LTD TO CLD VIS AND WIND=

USA.gov is the U.S. government's official web portal to all federal, state and local government web resources and services.